sensor_id;sensor_type;location;lat;lon;timestamp;P1;durP1;ratioP1;P2;durP2;ratioP2
64633;SDS011;51043;52.406;9.690;2022-12-18T00:01:14;17.23;;;11.20;;
64633;SDS011;51043;52.406;9.690;2022-12-18T00:03:46;21.83;;;11.57;;
64633;SDS011;51043;52.406;9.690;2022-12-18T00:06:14;16.93;;;11.60;;
64633;SDS011;51043;52.406;9.690;2022-12-18T00:08:42;16.37;;;11.07;;
64633;SDS011;51043;52.406;9.690;2022-12-18T00:11:12;19.60;;;11.35;;
64633;SDS011;51043;52.406;9.690;2022-12-18T00:13:41;21.43;;;11.07;;
64633;SDS011;51043;52.406;9.690;2022-12-18T00:16:09;18.47;;;10.67;;
64633;SDS011;51043;52.406;9.690;2022-12-18T00:18:38;19.97;;;11.00;;
64633;SDS011;51043;52.406;9.690;2022-12-18T00:21:07;18.03;;;10.60;;
64633;SDS011;51043;52.406;9.690;2022-12-18T00:23:35;22.57;;;11.33;;
64633;SDS011;51043;52.406;9.690;2022-12-18T00:26:07;22.23;;;11.30;;
64633;SDS011;51043;52.406;9.690;2022-12-18T00:28:39;17.53;;;10.80;;
64633;SDS011;51043;52.406;9.690;2022-12-18T00:31:10;15.93;;;9.90;;
64633;SDS011;51043;52.406;9.690;2022-12-18T00:33:40;20.20;;;10.75;;
64633;SDS011;51043;52.406;9.690;2022-12-18T00:38:40;17.07;;;10.83;;
64633;SDS011;51043;52.406;9.690;2022-12-18T00:41:08;16.87;;;10.57;;
64633;SDS011;51043;52.406;9.690;2022-12-18T00:43:37;16.40;;;10.77;;
64633;SDS011;51043;52.406;9.690;2022-12-18T00:46:05;16.70;;;10.33;;
64633;SDS011;51043;52.406;9.690;2022-12-18T00:48:32;19.50;;;10.73;;
64633;SDS011;51043;52.406;9.690;2022-12-18T00:50:59;16.17;;;10.33;;
64633;SDS011;51043;52.406;9.690;2022-12-18T00:53:26;16.55;;;11.00;;
64633;SDS011;51043;52.406;9.690;2022-12-18T00:55:54;18.50;;;10.67;;
64633;SDS011;51043;52.406;9.690;2022-12-18T00:58:21;18.10;;;10.70;;
64633;SDS011;51043;52.406;9.690;2022-12-18T01:00:48;18.27;;;10.37;;
64633;SDS011;51043;52.406;9.690;2022-12-18T01:03:15;17.07;;;10.87;;
64633;SDS011;51043;52.406;9.690;2022-12-18T01:05:43;16.33;;;10.67;;
64633;SDS011;51043;52.406;9.690;2022-12-18T01:08:10;16.67;;;10.20;;
64633;SDS011;51043;52.406;9.690;2022-12-18T01:10:39;17.80;;;10.60;;
64633;SDS011;51043;52.406;9.690;2022-12-18T01:13:07;18.47;;;10.27;;
64633;SDS011;51043;52.406;9.690;2022-12-18T01:15:34;17.57;;;11.10;;
64633;SDS011;51043;52.406;9.690;2022-12-18T01:18:01;16.00;;;11.13;;
64633;SDS011;51043;52.406;9.690;2022-12-18T01:20:31;15.07;;;10.27;;
64633;SDS011;51043;52.406;9.690;2022-12-18T01:22:58;18.40;;;11.33;;
64633;SDS011;51043;52.406;9.690;2022-12-18T01:25:25;16.47;;;10.87;;
64633;SDS011;51043;52.406;9.690;2022-12-18T01:27:52;16.73;;;10.70;;
64633;SDS011;51043;52.406;9.690;2022-12-18T01:30:19;16.93;;;10.93;;
64633;SDS011;51043;52.406;9.690;2022-12-18T01:32:46;17.30;;;11.40;;
64633;SDS011;51043;52.406;9.690;2022-12-18T01:35:13;19.07;;;11.17;;
64633;SDS011;51043;52.406;9.690;2022-12-18T01:37:40;20.47;;;11.40;;
64633;SDS011;51043;52.406;9.690;2022-12-18T01:40:07;18.57;;;10.67;;
64633;SDS011;51043;52.406;9.690;2022-12-18T01:42:34;19.93;;;11.07;;
64633;SDS011;51043;52.406;9.690;2022-12-18T01:45:05;16.67;;;10.77;;
64633;SDS011;51043;52.406;9.690;2022-12-18T01:48:01;14.70;;;10.20;;
64633;SDS011;51043;52.406;9.690;2022-12-18T01:50:36;21.53;;;11.93;;
64633;SDS011;51043;52.406;9.690;2022-12-18T01:53:14;16.37;;;11.17;;
64633;SDS011;51043;52.406;9.690;2022-12-18T01:55:44;14.93;;;10.33;;
64633;SDS011;51043;52.406;9.690;2022-12-18T01:58:14;20.40;;;11.30;;
64633;SDS011;51043;52.406;9.690;2022-12-18T02:00:42;16.85;;;10.65;;
64633;SDS011;51043;52.406;9.690;2022-12-18T02:03:09;19.07;;;11.00;;
64633;SDS011;51043;52.406;9.690;2022-12-18T02:05:39;19.63;;;11.47;;
64633;SDS011;51043;52.406;9.690;2022-12-18T02:08:21;18.10;;;9.90;;
64633;SDS011;51043;52.406;9.690;2022-12-18T02:11:19;16.77;;;9.97;;
64633;SDS011;51043;52.406;9.690;2022-12-18T02:16:54;14.70;;;9.83;;
64633;SDS011;51043;52.406;9.690;2022-12-18T02:20:06;17.77;;;10.93;;
64633;SDS011;51043;52.406;9.690;2022-12-18T02:26:04;16.47;;;10.50;;
64633;SDS011;51043;52.406;9.690;2022-12-18T02:28:44;18.83;;;10.90;;
64633;SDS011;51043;52.406;9.690;2022-12-18T02:31:35;18.40;;;10.03;;
64633;SDS011;51043;52.406;9.690;2022-12-18T02:34:07;21.30;;;11.07;;
64633;SDS011;51043;52.406;9.690;2022-12-18T02:36:38;18.70;;;11.40;;
64633;SDS011;51043;52.406;9.690;2022-12-18T02:39:07;18.30;;;11.35;;
64633;SDS011;51043;52.406;9.690;2022-12-18T02:41:42;15.80;;;10.03;;
64633;SDS011;51043;52.406;9.690;2022-12-18T02:44:10;16.97;;;10.47;;
64633;SDS011;51043;52.406;9.690;2022-12-18T02:46:44;21.17;;;11.57;;
64633;SDS011;51043;52.406;9.690;2022-12-18T02:55:13;20.10;;;11.70;;
64633;SDS011;51043;52.406;9.690;2022-12-18T02:58:08;20.67;;;11.53;;
64633;SDS011;51043;52.406;9.690;2022-12-18T03:00:39;17.40;;;10.83;;
64633;SDS011;51043;52.406;9.690;2022-12-18T03:03:29;18.17;;;10.70;;
64633;SDS011;51043;52.406;9.690;2022-12-18T03:06:14;19.53;;;10.77;;
64633;SDS011;51043;52.406;9.690;2022-12-18T03:08:49;16.67;;;10.87;;
64633;SDS011;51043;52.406;9.690;2022-12-18T03:11:22;19.87;;;10.90;;
64633;SDS011;51043;52.406;9.690;2022-12-18T03:14:09;17.93;;;11.73;;
64633;SDS011;51043;52.406;9.690;2022-12-18T03:16:39;22.37;;;11.47;;
64633;SDS011;51043;52.406;9.690;2022-12-18T03:19:08;19.27;;;11.30;;
64633;SDS011;51043;52.406;9.690;2022-12-18T03:21:42;15.17;;;10.60;;
64633;SDS011;51043;52.406;9.690;2022-12-18T03:24:15;20.57;;;11.20;;
64633;SDS011;51043;52.406;9.690;2022-12-18T03:26:46;13.80;;;10.53;;
64633;SDS011;51043;52.406;9.690;2022-12-18T03:29:18;17.57;;;10.87;;
64633;SDS011;51043;52.406;9.690;2022-12-18T03:32:15;15.17;;;10.63;;
64633;SDS011;51043;52.406;9.690;2022-12-18T03:34:49;17.33;;;11.03;;
64633;SDS011;51043;52.406;9.690;2022-12-18T03:37:21;18.55;;;10.30;;
64633;SDS011;51043;52.406;9.690;2022-12-18T03:39:50;14.27;;;10.20;;
64633;SDS011;51043;52.406;9.690;2022-12-18T03:45:02;18.17;;;10.27;;
64633;SDS011;51043;52.406;9.690;2022-12-18T03:55:58;15.70;;;10.23;;
64633;SDS011;51043;52.406;9.690;2022-12-18T03:58:33;16.70;;;10.03;;
64633;SDS011;51043;52.406;9.690;2022-12-18T04:01:13;16.00;;;10.73;;
64633;SDS011;51043;52.406;9.690;2022-12-18T04:03:43;15.23;;;10.20;;
64633;SDS011;51043;52.406;9.690;2022-12-18T04:06:13;13.73;;;10.07;;
64633;SDS011;51043;52.406;9.690;2022-12-18T04:08:42;19.80;;;11.13;;
64633;SDS011;51043;52.406;9.690;2022-12-18T04:11:13;16.73;;;10.47;;
64633;SDS011;51043;52.406;9.690;2022-12-18T04:13:40;19.50;;;11.10;;
64633;SDS011;51043;52.406;9.690;2022-12-18T04:16:17;20.27;;;10.77;;
64633;SDS011;51043;52.406;9.690;2022-12-18T04:18:48;14.73;;;10.70;;
64633;SDS011;51043;52.406;9.690;2022-12-18T04:21:17;17.33;;;10.20;;
64633;SDS011;51043;52.406;9.690;2022-12-18T04:23:45;16.90;;;10.83;;
64633;SDS011;51043;52.406;9.690;2022-12-18T04:26:12;17.60;;;10.77;;
64633;SDS011;51043;52.406;9.690;2022-12-18T04:28:51;16.93;;;10.53;;
64633;SDS011;51043;52.406;9.690;2022-12-18T04:31:18;15.30;;;10.97;;
64633;SDS011;51043;52.406;9.690;2022-12-18T04:33:45;16.87;;;10.40;;
64633;SDS011;51043;52.406;9.690;2022-12-18T04:36:14;19.43;;;11.40;;
64633;SDS011;51043;52.406;9.690;2022-12-18T04:38:41;14.27;;;10.40;;
64633;SDS011;51043;52.406;9.690;2022-12-18T04:41:12;19.07;;;11.20;;
64633;SDS011;51043;52.406;9.690;2022-12-18T04:43:40;18.47;;;11.67;;
64633;SDS011;51043;52.406;9.690;2022-12-18T04:46:07;14.20;;;10.43;;
64633;SDS011;51043;52.406;9.690;2022-12-18T04:48:36;19.73;;;11.43;;
64633;SDS011;51043;52.406;9.690;2022-12-18T04:51:04;22.67;;;11.27;;
64633;SDS011;51043;52.406;9.690;2022-12-18T04:53:31;22.23;;;12.17;;
64633;SDS011;51043;52.406;9.690;2022-12-18T04:58:52;16.77;;;10.73;;
64633;SDS011;51043;52.406;9.690;2022-12-18T05:01:18;19.87;;;11.63;;
64633;SDS011;51043;52.406;9.690;2022-12-18T05:03:45;17.53;;;10.60;;
64633;SDS011;51043;52.406;9.690;2022-12-18T05:06:12;17.70;;;10.20;;
64633;SDS011;51043;52.406;9.690;2022-12-18T05:08:39;16.35;;;10.95;;
64633;SDS011;51043;52.406;9.690;2022-12-18T05:11:07;19.95;;;12.25;;
64633;SDS011;51043;52.406;9.690;2022-12-18T05:13:36;14.35;;;10.70;;
64633;SDS011;51043;52.406;9.690;2022-12-18T05:16:04;17.80;;;11.17;;
64633;SDS011;51043;52.406;9.690;2022-12-18T05:18:31;18.93;;;11.13;;
64633;SDS011;51043;52.406;9.690;2022-12-18T05:20:58;19.73;;;11.10;;
64633;SDS011;51043;52.406;9.690;2022-12-18T05:23:25;15.97;;;11.47;;
64633;SDS011;51043;52.406;9.690;2022-12-18T05:25:53;14.37;;;10.80;;
64633;SDS011;51043;52.406;9.690;2022-12-18T05:28:23;15.60;;;10.87;;
64633;SDS011;51043;52.406;9.690;2022-12-18T05:30:52;23.93;;;11.63;;
64633;SDS011;51043;52.406;9.690;2022-12-18T05:33:20;13.85;;;10.40;;
64633;SDS011;51043;52.406;9.690;2022-12-18T05:35:53;15.10;;;10.00;;
64633;SDS011;51043;52.406;9.690;2022-12-18T05:38:21;17.55;;;9.80;;
64633;SDS011;51043;52.406;9.690;2022-12-18T05:40:49;18.40;;;11.20;;
64633;SDS011;51043;52.406;9.690;2022-12-18T05:43:17;17.83;;;10.60;;
64633;SDS011;51043;52.406;9.690;2022-12-18T05:45:46;19.07;;;11.03;;
64633;SDS011;51043;52.406;9.690;2022-12-18T05:48:13;14.50;;;10.05;;
64633;SDS011;51043;52.406;9.690;2022-12-18T05:50:41;16.73;;;10.33;;
64633;SDS011;51043;52.406;9.690;2022-12-18T05:53:11;15.40;;;9.70;;
64633;SDS011;51043;52.406;9.690;2022-12-18T05:55:40;15.95;;;10.20;;
64633;SDS011;51043;52.406;9.690;2022-12-18T05:58:09;16.10;;;10.27;;
64633;SDS011;51043;52.406;9.690;2022-12-18T06:00:44;15.77;;;9.63;;
64633;SDS011;51043;52.406;9.690;2022-12-18T06:03:12;16.03;;;10.00;;
64633;SDS011;51043;52.406;9.690;2022-12-18T06:05:40;19.07;;;10.07;;
64633;SDS011;51043;52.406;9.690;2022-12-18T06:08:09;13.00;;;9.15;;
64633;SDS011;51043;52.406;9.690;2022-12-18T06:10:36;17.23;;;10.60;;
64633;SDS011;51043;52.406;9.690;2022-12-18T06:13:04;14.77;;;9.67;;
64633;SDS011;51043;52.406;9.690;2022-12-18T06:15:31;16.53;;;10.07;;
64633;SDS011;51043;52.406;9.690;2022-12-18T06:17:59;12.30;;;9.13;;
64633;SDS011;51043;52.406;9.690;2022-12-18T06:20:27;14.10;;;9.77;;
64633;SDS011;51043;52.406;9.690;2022-12-18T06:22:58;13.17;;;9.33;;
64633;SDS011;51043;52.406;9.690;2022-12-18T06:25:25;16.30;;;9.83;;
64633;SDS011;51043;52.406;9.690;2022-12-18T06:27:52;16.47;;;9.87;;
64633;SDS011;51043;52.406;9.690;2022-12-18T06:30:19;19.10;;;10.20;;
64633;SDS011;51043;52.406;9.690;2022-12-18T06:32:47;19.10;;;10.70;;
64633;SDS011;51043;52.406;9.690;2022-12-18T06:35:17;15.27;;;9.53;;
64633;SDS011;51043;52.406;9.690;2022-12-18T06:37:43;16.53;;;10.53;;
64633;SDS011;51043;52.406;9.690;2022-12-18T06:40:10;20.20;;;10.33;;
64633;SDS011;51043;52.406;9.690;2022-12-18T06:42:37;17.43;;;9.33;;
64633;SDS011;51043;52.406;9.690;2022-12-18T06:45:04;14.57;;;10.53;;
64633;SDS011;51043;52.406;9.690;2022-12-18T06:47:32;19.03;;;9.77;;
64633;SDS011;51043;52.406;9.690;2022-12-18T06:49:59;19.50;;;10.03;;
64633;SDS011;51043;52.406;9.690;2022-12-18T06:52:26;14.13;;;9.40;;
64633;SDS011;51043;52.406;9.690;2022-12-18T06:54:53;15.80;;;10.70;;
64633;SDS011;51043;52.406;9.690;2022-12-18T06:57:20;15.00;;;9.77;;
64633;SDS011;51043;52.406;9.690;2022-12-18T06:59:47;14.33;;;9.43;;
64633;SDS011;51043;52.406;9.690;2022-12-18T07:02:14;13.00;;;9.23;;
64633;SDS011;51043;52.406;9.690;2022-12-18T07:04:41;13.70;;;9.60;;
64633;SDS011;51043;52.406;9.690;2022-12-18T07:07:07;16.83;;;9.50;;
64633;SDS011;51043;52.406;9.690;2022-12-18T07:09:34;15.70;;;10.00;;
64633;SDS011;51043;52.406;9.690;2022-12-18T07:12:04;14.40;;;9.17;;
64633;SDS011;51043;52.406;9.690;2022-12-18T07:14:33;16.30;;;10.00;;
64633;SDS011;51043;52.406;9.690;2022-12-18T07:17:00;13.73;;;9.00;;
64633;SDS011;51043;52.406;9.690;2022-12-18T07:19:27;15.83;;;9.90;;
64633;SDS011;51043;52.406;9.690;2022-12-18T07:21:54;15.40;;;9.33;;
64633;SDS011;51043;52.406;9.690;2022-12-18T07:24:21;14.73;;;9.30;;
64633;SDS011;51043;52.406;9.690;2022-12-18T07:26:47;15.50;;;9.53;;
64633;SDS011;51043;52.406;9.690;2022-12-18T07:29:15;17.20;;;9.93;;
64633;SDS011;51043;52.406;9.690;2022-12-18T07:31:42;14.07;;;9.90;;
64633;SDS011;51043;52.406;9.690;2022-12-18T07:34:09;18.57;;;9.77;;
64633;SDS011;51043;52.406;9.690;2022-12-18T07:36:41;18.20;;;9.97;;
64633;SDS011;51043;52.406;9.690;2022-12-18T07:39:08;13.70;;;9.73;;
64633;SDS011;51043;52.406;9.690;2022-12-18T07:41:36;13.07;;;9.23;;
64633;SDS011;51043;52.406;9.690;2022-12-18T07:44:11;15.03;;;9.37;;
64633;SDS011;51043;52.406;9.690;2022-12-18T07:46:38;15.65;;;9.70;;
64633;SDS011;51043;52.406;9.690;2022-12-18T07:49:06;17.17;;;9.97;;
64633;SDS011;51043;52.406;9.690;2022-12-18T07:51:33;12.40;;;9.43;;
64633;SDS011;51043;52.406;9.690;2022-12-18T07:54:00;17.50;;;9.23;;
64633;SDS011;51043;52.406;9.690;2022-12-18T07:56:27;17.13;;;11.10;;
64633;SDS011;51043;52.406;9.690;2022-12-18T07:58:56;21.40;;;13.47;;
64633;SDS011;51043;52.406;9.690;2022-12-18T08:01:23;16.77;;;10.60;;
64633;SDS011;51043;52.406;9.690;2022-12-18T08:03:50;21.90;;;13.10;;
64633;SDS011;51043;52.406;9.690;2022-12-18T08:06:17;16.07;;;10.90;;
64633;SDS011;51043;52.406;9.690;2022-12-18T08:08:44;14.77;;;9.97;;
64633;SDS011;51043;52.406;9.690;2022-12-18T08:11:11;17.13;;;10.33;;
64633;SDS011;51043;52.406;9.690;2022-12-18T08:13:38;15.70;;;9.17;;
64633;SDS011;51043;52.406;9.690;2022-12-18T08:16:06;12.73;;;9.43;;
64633;SDS011;51043;52.406;9.690;2022-12-18T08:18:37;23.97;;;10.30;;
64633;SDS011;51043;52.406;9.690;2022-12-18T08:21:14;16.57;;;8.63;;
64633;SDS011;51043;52.406;9.690;2022-12-18T08:23:42;18.43;;;9.90;;
64633;SDS011;51043;52.406;9.690;2022-12-18T08:26:11;13.33;;;8.93;;
64633;SDS011;51043;52.406;9.690;2022-12-18T08:28:38;16.20;;;9.40;;
64633;SDS011;51043;52.406;9.690;2022-12-18T08:31:06;14.67;;;9.20;;
64633;SDS011;51043;52.406;9.690;2022-12-18T08:33:33;14.57;;;9.27;;
64633;SDS011;51043;52.406;9.690;2022-12-18T08:36:01;13.00;;;8.37;;
64633;SDS011;51043;52.406;9.690;2022-12-18T08:38:30;13.43;;;9.10;;
64633;SDS011;51043;52.406;9.690;2022-12-18T08:41:01;16.37;;;9.10;;
64633;SDS011;51043;52.406;9.690;2022-12-18T08:43:29;16.60;;;9.17;;
64633;SDS011;51043;52.406;9.690;2022-12-18T08:46:15;14.80;;;8.50;;
64633;SDS011;51043;52.406;9.690;2022-12-18T08:48:42;14.20;;;8.77;;
64633;SDS011;51043;52.406;9.690;2022-12-18T08:51:09;12.77;;;8.00;;
64633;SDS011;51043;52.406;9.690;2022-12-18T08:53:37;12.17;;;8.40;;
64633;SDS011;51043;52.406;9.690;2022-12-18T08:56:05;10.97;;;7.87;;
64633;SDS011;51043;52.406;9.690;2022-12-18T08:58:32;14.33;;;8.27;;
64633;SDS011;51043;52.406;9.690;2022-12-18T09:00:59;16.53;;;8.20;;
64633;SDS011;51043;52.406;9.690;2022-12-18T09:03:28;16.27;;;9.27;;
64633;SDS011;51043;52.406;9.690;2022-12-18T09:05:54;16.23;;;8.70;;
64633;SDS011;51043;52.406;9.690;2022-12-18T09:08:21;14.80;;;7.57;;
64633;SDS011;51043;52.406;9.690;2022-12-18T09:10:49;13.23;;;8.80;;
64633;SDS011;51043;52.406;9.690;2022-12-18T09:13:16;12.77;;;8.00;;
64633;SDS011;51043;52.406;9.690;2022-12-18T09:15:45;11.17;;;7.70;;
64633;SDS011;51043;52.406;9.690;2022-12-18T09:18:13;12.83;;;7.77;;
64633;SDS011;51043;52.406;9.690;2022-12-18T09:20:42;11.63;;;8.10;;
64633;SDS011;51043;52.406;9.690;2022-12-18T09:23:09;14.20;;;8.00;;
64633;SDS011;51043;52.406;9.690;2022-12-18T09:25:37;12.53;;;7.90;;
64633;SDS011;51043;52.406;9.690;2022-12-18T09:28:05;15.63;;;8.47;;
64633;SDS011;51043;52.406;9.690;2022-12-18T09:30:39;12.00;;;8.03;;
64633;SDS011;51043;52.406;9.690;2022-12-18T09:33:07;11.53;;;7.30;;
64633;SDS011;51043;52.406;9.690;2022-12-18T09:35:38;10.00;;;6.77;;
64633;SDS011;51043;52.406;9.690;2022-12-18T09:38:06;10.30;;;6.97;;
64633;SDS011;51043;52.406;9.690;2022-12-18T09:40:35;9.27;;;6.70;;
64633;SDS011;51043;52.406;9.690;2022-12-18T09:43:09;9.07;;;6.50;;
64633;SDS011;51043;52.406;9.690;2022-12-18T09:45:46;12.07;;;7.40;;
64633;SDS011;51043;52.406;9.690;2022-12-18T09:48:26;10.93;;;7.07;;
64633;SDS011;51043;52.406;9.690;2022-12-18T09:50:58;10.03;;;6.97;;
64633;SDS011;51043;52.406;9.690;2022-12-18T09:53:30;8.87;;;6.70;;
64633;SDS011;51043;52.406;9.690;2022-12-18T09:55:59;11.07;;;7.07;;
64633;SDS011;51043;52.406;9.690;2022-12-18T09:59:02;10.53;;;6.60;;
64633;SDS011;51043;52.406;9.690;2022-12-18T10:01:28;10.13;;;6.60;;
64633;SDS011;51043;52.406;9.690;2022-12-18T10:04:04;10.73;;;6.70;;
64633;SDS011;51043;52.406;9.690;2022-12-18T10:06:49;13.57;;;7.20;;
64633;SDS011;51043;52.406;9.690;2022-12-18T10:09:33;12.33;;;7.33;;
64633;SDS011;51043;52.406;9.690;2022-12-18T10:12:20;8.20;;;6.20;;
64633;SDS011;51043;52.406;9.690;2022-12-18T10:20:13;9.80;;;6.53;;
64633;SDS011;51043;52.406;9.690;2022-12-18T10:26:19;10.30;;;6.47;;
64633;SDS011;51043;52.406;9.690;2022-12-18T10:28:30;11.07;;;6.60;;
64633;SDS011;51043;52.406;9.690;2022-12-18T10:30:58;9.27;;;6.60;;
64633;SDS011;51043;52.406;9.690;2022-12-18T10:33:28;13.07;;;7.53;;
64633;SDS011;51043;52.406;9.690;2022-12-18T10:35:56;14.73;;;7.27;;
64633;SDS011;51043;52.406;9.690;2022-12-18T10:38:30;8.90;;;5.83;;
64633;SDS011;51043;52.406;9.690;2022-12-18T10:41:02;9.30;;;6.07;;
64633;SDS011;51043;52.406;9.690;2022-12-18T10:43:32;13.53;;;7.40;;
64633;SDS011;51043;52.406;9.690;2022-12-18T10:46:02;11.97;;;7.40;;
64633;SDS011;51043;52.406;9.690;2022-12-18T10:48:36;12.77;;;6.20;;
64633;SDS011;51043;52.406;9.690;2022-12-18T10:51:35;9.87;;;6.17;;
64633;SDS011;51043;52.406;9.690;2022-12-18T10:54:05;9.27;;;6.80;;
64633;SDS011;51043;52.406;9.690;2022-12-18T10:56:40;10.50;;;6.50;;
64633;SDS011;51043;52.406;9.690;2022-12-18T10:59:09;8.23;;;5.63;;
64633;SDS011;51043;52.406;9.690;2022-12-18T11:01:48;9.70;;;6.43;;
64633;SDS011;51043;52.406;9.690;2022-12-18T11:04:26;10.80;;;6.43;;
64633;SDS011;51043;52.406;9.690;2022-12-18T11:06:57;7.87;;;5.40;;
64633;SDS011;51043;52.406;9.690;2022-12-18T11:09:33;9.00;;;6.20;;
64633;SDS011;51043;52.406;9.690;2022-12-18T11:12:02;13.33;;;6.70;;
64633;SDS011;51043;52.406;9.690;2022-12-18T11:14:34;12.63;;;6.60;;
64633;SDS011;51043;52.406;9.690;2022-12-18T11:17:19;10.50;;;5.97;;
64633;SDS011;51043;52.406;9.690;2022-12-18T11:19:58;9.90;;;5.93;;
64633;SDS011;51043;52.406;9.690;2022-12-18T11:22:31;11.40;;;6.70;;
64633;SDS011;51043;52.406;9.690;2022-12-18T11:25:07;11.83;;;6.97;;
64633;SDS011;51043;52.406;9.690;2022-12-18T11:30:29;9.27;;;6.00;;
64633;SDS011;51043;52.406;9.690;2022-12-18T11:35:45;10.83;;;5.77;;
64633;SDS011;51043;52.406;9.690;2022-12-18T11:38:29;10.67;;;5.43;;
64633;SDS011;51043;52.406;9.690;2022-12-18T11:44:18;12.07;;;8.00;;
64633;SDS011;51043;52.406;9.690;2022-12-18T11:46:56;7.97;;;5.13;;
64633;SDS011;51043;52.406;9.690;2022-12-18T11:49:34;8.03;;;4.83;;
64633;SDS011;51043;52.406;9.690;2022-12-18T11:52:04;8.37;;;5.50;;
64633;SDS011;51043;52.406;9.690;2022-12-18T11:54:40;7.67;;;5.43;;
64633;SDS011;51043;52.406;9.690;2022-12-18T12:00:15;10.63;;;6.30;;
64633;SDS011;51043;52.406;9.690;2022-12-18T12:08:23;10.37;;;6.37;;
64633;SDS011;51043;52.406;9.690;2022-12-18T12:20:06;7.27;;;5.40;;
64633;SDS011;51043;52.406;9.690;2022-12-18T12:22:51;9.50;;;5.00;;
64633;SDS011;51043;52.406;9.690;2022-12-18T12:30:35;6.50;;;4.20;;
64633;SDS011;51043;52.406;9.690;2022-12-18T12:36:02;6.20;;;4.30;;
64633;SDS011;51043;52.406;9.690;2022-12-18T12:38:44;21.73;;;11.40;;
64633;SDS011;51043;52.406;9.690;2022-12-18T12:41:18;10.50;;;7.00;;
64633;SDS011;51043;52.406;9.690;2022-12-18T12:44:09;13.00;;;7.00;;
64633;SDS011;51043;52.406;9.690;2022-12-18T12:46:42;7.10;;;5.57;;
64633;SDS011;51043;52.406;9.690;2022-12-18T12:49:14;8.33;;;5.23;;
64633;SDS011;51043;52.406;9.690;2022-12-18T12:51:45;9.83;;;6.67;;
64633;SDS011;51043;52.406;9.690;2022-12-18T12:54:19;11.33;;;5.60;;
64633;SDS011;51043;52.406;9.690;2022-12-18T12:57:09;10.33;;;6.50;;
64633;SDS011;51043;52.406;9.690;2022-12-18T13:02:31;12.37;;;7.27;;
64633;SDS011;51043;52.406;9.690;2022-12-18T13:05:34;12.33;;;6.70;;
64633;SDS011;51043;52.406;9.690;2022-12-18T13:08:22;8.47;;;6.00;;
64633;SDS011;51043;52.406;9.690;2022-12-18T13:10:59;7.10;;;6.10;;
64633;SDS011;51043;52.406;9.690;2022-12-18T13:13:49;10.00;;;5.80;;
64633;SDS011;51043;52.406;9.690;2022-12-18T13:16:19;9.40;;;5.97;;
64633;SDS011;51043;52.406;9.690;2022-12-18T13:18:48;7.00;;;6.03;;
64633;SDS011;51043;52.406;9.690;2022-12-18T13:24:08;8.67;;;6.10;;
64633;SDS011;51043;52.406;9.690;2022-12-18T13:26:56;12.60;;;6.47;;
64633;SDS011;51043;52.406;9.690;2022-12-18T13:32:22;14.30;;;6.57;;
64633;SDS011;51043;52.406;9.690;2022-12-18T13:37:52;10.53;;;7.23;;
64633;SDS011;51043;52.406;9.690;2022-12-18T13:51:55;13.53;;;8.23;;
64633;SDS011;51043;52.406;9.690;2022-12-18T13:54:35;15.93;;;8.50;;
64633;SDS011;51043;52.406;9.690;2022-12-18T13:57:24;23.70;;;14.37;;
64633;SDS011;51043;52.406;9.690;2022-12-18T13:59:56;20.10;;;10.53;;
64633;SDS011;51043;52.406;9.690;2022-12-18T14:02:26;17.33;;;10.87;;
64633;SDS011;51043;52.406;9.690;2022-12-18T14:04:54;15.73;;;10.27;;
64633;SDS011;51043;52.406;9.690;2022-12-18T14:07:22;20.13;;;10.43;;
64633;SDS011;51043;52.406;9.690;2022-12-18T14:09:55;18.77;;;10.87;;
64633;SDS011;51043;52.406;9.690;2022-12-18T14:12:32;17.00;;;10.87;;
64633;SDS011;51043;52.406;9.690;2022-12-18T14:15:23;16.87;;;11.10;;
64633;SDS011;51043;52.406;9.690;2022-12-18T14:17:53;23.67;;;11.63;;
64633;SDS011;51043;52.406;9.690;2022-12-18T14:20:41;22.27;;;11.20;;
64633;SDS011;51043;52.406;9.690;2022-12-18T14:25:55;24.13;;;11.97;;
64633;SDS011;51043;52.406;9.690;2022-12-18T14:28:25;22.33;;;12.53;;
64633;SDS011;51043;52.406;9.690;2022-12-18T14:31:04;19.03;;;12.13;;
64633;SDS011;51043;52.406;9.690;2022-12-18T14:33:43;21.90;;;12.57;;
64633;SDS011;51043;52.406;9.690;2022-12-18T14:36:23;22.73;;;13.57;;
64633;SDS011;51043;52.406;9.690;2022-12-18T14:38:55;25.13;;;14.30;;
64633;SDS011;51043;52.406;9.690;2022-12-18T14:41:24;26.50;;;13.83;;
64633;SDS011;51043;52.406;9.690;2022-12-18T14:43:52;20.37;;;12.97;;
64633;SDS011;51043;52.406;9.690;2022-12-18T14:46:39;22.57;;;13.53;;
64633;SDS011;51043;52.406;9.690;2022-12-18T14:49:20;23.40;;;14.00;;
64633;SDS011;51043;52.406;9.690;2022-12-18T14:51:55;23.20;;;13.53;;
64633;SDS011;51043;52.406;9.690;2022-12-18T14:54:26;19.20;;;12.77;;
64633;SDS011;51043;52.406;9.690;2022-12-18T14:57:20;24.83;;;12.57;;
64633;SDS011;51043;52.406;9.690;2022-12-18T14:59:47;22.23;;;13.87;;
64633;SDS011;51043;52.406;9.690;2022-12-18T15:02:22;24.87;;;13.30;;
64633;SDS011;51043;52.406;9.690;2022-12-18T15:05:34;18.93;;;12.77;;
64633;SDS011;51043;52.406;9.690;2022-12-18T15:07:42;26.20;;;14.17;;
64633;SDS011;51043;52.406;9.690;2022-12-18T15:10:33;21.43;;;13.30;;
64633;SDS011;51043;52.406;9.690;2022-12-18T15:18:03;26.83;;;14.47;;
64633;SDS011;51043;52.406;9.690;2022-12-18T15:21:17;24.87;;;14.57;;
64633;SDS011;51043;52.406;9.690;2022-12-18T15:26:15;27.47;;;16.63;;
64633;SDS011;51043;52.406;9.690;2022-12-18T15:28:53;26.20;;;15.10;;
64633;SDS011;51043;52.406;9.690;2022-12-18T15:36:22;23.03;;;15.57;;
64633;SDS011;51043;52.406;9.690;2022-12-18T15:38:50;28.17;;;15.20;;
64633;SDS011;51043;52.406;9.690;2022-12-18T15:41:19;25.53;;;15.87;;
64633;SDS011;51043;52.406;9.690;2022-12-18T15:43:50;33.57;;;16.03;;
64633;SDS011;51043;52.406;9.690;2022-12-18T15:46:19;24.60;;;15.40;;
64633;SDS011;51043;52.406;9.690;2022-12-18T15:48:50;23.97;;;16.00;;
64633;SDS011;51043;52.406;9.690;2022-12-18T15:51:56;24.97;;;16.23;;
64633;SDS011;51043;52.406;9.690;2022-12-18T15:54:22;26.53;;;15.20;;
64633;SDS011;51043;52.406;9.690;2022-12-18T15:57:12;26.07;;;14.73;;
64633;SDS011;51043;52.406;9.690;2022-12-18T15:59:51;27.13;;;14.80;;
64633;SDS011;51043;52.406;9.690;2022-12-18T16:02:20;23.23;;;15.37;;
64633;SDS011;51043;52.406;9.690;2022-12-18T16:04:49;27.70;;;14.70;;
64633;SDS011;51043;52.406;9.690;2022-12-18T16:07:17;24.37;;;14.73;;
64633;SDS011;51043;52.406;9.690;2022-12-18T16:09:44;27.13;;;15.60;;
64633;SDS011;51043;52.406;9.690;2022-12-18T16:12:16;21.77;;;12.63;;
64633;SDS011;51043;52.406;9.690;2022-12-18T16:14:45;22.00;;;14.40;;
64633;SDS011;51043;52.406;9.690;2022-12-18T16:17:13;23.37;;;13.43;;
64633;SDS011;51043;52.406;9.690;2022-12-18T16:19:40;24.50;;;14.50;;
64633;SDS011;51043;52.406;9.690;2022-12-18T16:22:14;19.67;;;12.87;;
64633;SDS011;51043;52.406;9.690;2022-12-18T16:24:47;21.93;;;13.87;;
64633;SDS011;51043;52.406;9.690;2022-12-18T16:27:15;23.17;;;14.13;;
64633;SDS011;51043;52.406;9.690;2022-12-18T16:29:42;20.30;;;13.07;;
64633;SDS011;51043;52.406;9.690;2022-12-18T16:32:19;21.83;;;13.10;;
64633;SDS011;51043;52.406;9.690;2022-12-18T16:34:47;19.77;;;13.80;;
64633;SDS011;51043;52.406;9.690;2022-12-18T16:37:15;27.60;;;14.07;;
64633;SDS011;51043;52.406;9.690;2022-12-18T16:39:42;23.70;;;13.57;;
64633;SDS011;51043;52.406;9.690;2022-12-18T16:44:40;26.30;;;14.97;;
64633;SDS011;51043;52.406;9.690;2022-12-18T16:47:08;21.03;;;13.17;;
64633;SDS011;51043;52.406;9.690;2022-12-18T16:49:35;20.87;;;14.40;;